sensor_id;sensor_type;location;lat;lon;timestamp;P1;durP1;ratioP1;P2;durP2;ratioP2
76837;SDS011;65797;47.352;8.164;2023-04-21T00:01:03;11.40;;;3.97;;
76837;SDS011;65797;47.352;8.164;2023-04-21T00:03:32;12.13;;;4.13;;
76837;SDS011;65797;47.352;8.164;2023-04-21T00:06:02;9.50;;;4.37;;
76837;SDS011;65797;47.352;8.164;2023-04-21T00:08:30;7.63;;;3.53;;
76837;SDS011;65797;47.352;8.164;2023-04-21T00:10:57;13.67;;;4.70;;
76837;SDS011;65797;47.352;8.164;2023-04-21T00:13:23;11.40;;;4.10;;
76837;SDS011;65797;47.352;8.164;2023-04-21T00:15:49;10.37;;;4.73;;
76837;SDS011;65797;47.352;8.164;2023-04-21T00:18:15;4.90;;;4.33;;
76837;SDS011;65797;47.352;8.164;2023-04-21T00:20:42;4.47;;;3.57;;
76837;SDS011;65797;47.352;8.164;2023-04-21T00:23:09;9.10;;;4.47;;
76837;SDS011;65797;47.352;8.164;2023-04-21T00:25:35;20.90;;;4.50;;
76837;SDS011;65797;47.352;8.164;2023-04-21T00:28:01;6.53;;;4.20;;
76837;SDS011;65797;47.352;8.164;2023-04-21T00:30:27;8.10;;;4.23;;
76837;SDS011;65797;47.352;8.164;2023-04-21T00:32:53;18.17;;;5.27;;
76837;SDS011;65797;47.352;8.164;2023-04-21T00:35:19;10.00;;;4.57;;
76837;SDS011;65797;47.352;8.164;2023-04-21T00:37:45;8.60;;;4.37;;
76837;SDS011;65797;47.352;8.164;2023-04-21T00:40:11;13.53;;;3.87;;
76837;SDS011;65797;47.352;8.164;2023-04-21T00:42:37;12.23;;;4.00;;
76837;SDS011;65797;47.352;8.164;2023-04-21T00:45:03;13.90;;;4.90;;
76837;SDS011;65797;47.352;8.164;2023-04-21T00:47:29;27.17;;;5.40;;
76837;SDS011;65797;47.352;8.164;2023-04-21T00:49:56;14.93;;;4.63;;
76837;SDS011;65797;47.352;8.164;2023-04-21T00:52:24;7.50;;;5.30;;
76837;SDS011;65797;47.352;8.164;2023-04-21T00:54:52;10.90;;;4.27;;
76837;SDS011;65797;47.352;8.164;2023-04-21T00:57:18;5.93;;;4.70;;
76837;SDS011;65797;47.352;8.164;2023-04-21T00:59:45;12.67;;;4.70;;
76837;SDS011;65797;47.352;8.164;2023-04-21T01:02:10;9.20;;;5.73;;
76837;SDS011;65797;47.352;8.164;2023-04-21T01:04:38;9.87;;;5.40;;
76837;SDS011;65797;47.352;8.164;2023-04-21T01:07:04;9.20;;;5.17;;
76837;SDS011;65797;47.352;8.164;2023-04-21T01:09:32;12.43;;;5.50;;
76837;SDS011;65797;47.352;8.164;2023-04-21T01:12:10;14.47;;;5.37;;
76837;SDS011;65797;47.352;8.164;2023-04-21T01:14:37;18.33;;;5.60;;
76837;SDS011;65797;47.352;8.164;2023-04-21T01:17:04;12.20;;;5.50;;
76837;SDS011;65797;47.352;8.164;2023-04-21T01:19:33;19.60;;;6.40;;
76837;SDS011;65797;47.352;8.164;2023-04-21T01:22:05;13.27;;;6.20;;
76837;SDS011;65797;47.352;8.164;2023-04-21T01:24:41;16.83;;;6.50;;
76837;SDS011;65797;47.352;8.164;2023-04-21T01:27:09;19.93;;;5.40;;
76837;SDS011;65797;47.352;8.164;2023-04-21T01:29:47;19.60;;;6.73;;
76837;SDS011;65797;47.352;8.164;2023-04-21T01:32:24;31.67;;;6.10;;
76837;SDS011;65797;47.352;8.164;2023-04-21T01:34:51;41.83;;;6.63;;
76837;SDS011;65797;47.352;8.164;2023-04-21T01:37:18;20.63;;;5.67;;
76837;SDS011;65797;47.352;8.164;2023-04-21T01:39:47;23.03;;;6.20;;
76837;SDS011;65797;47.352;8.164;2023-04-21T01:42:18;13.80;;;6.37;;
76837;SDS011;65797;47.352;8.164;2023-04-21T01:44:49;20.77;;;4.83;;
76837;SDS011;65797;47.352;8.164;2023-04-21T01:47:17;24.37;;;5.80;;
76837;SDS011;65797;47.352;8.164;2023-04-21T01:49:43;19.43;;;5.93;;
76837;SDS011;65797;47.352;8.164;2023-04-21T01:52:09;13.90;;;6.60;;
76837;SDS011;65797;47.352;8.164;2023-04-21T01:54:35;8.93;;;5.43;;
76837;SDS011;65797;47.352;8.164;2023-04-21T01:57:01;22.03;;;5.97;;
76837;SDS011;65797;47.352;8.164;2023-04-21T01:59:27;13.53;;;6.00;;
76837;SDS011;65797;47.352;8.164;2023-04-21T02:01:53;31.27;;;7.00;;
76837;SDS011;65797;47.352;8.164;2023-04-21T02:04:18;31.30;;;5.93;;
76837;SDS011;65797;47.352;8.164;2023-04-21T02:06:44;34.50;;;5.83;;
76837;SDS011;65797;47.352;8.164;2023-04-21T02:09:10;26.50;;;5.70;;
76837;SDS011;65797;47.352;8.164;2023-04-21T02:11:36;16.53;;;6.90;;
76837;SDS011;65797;47.352;8.164;2023-04-21T02:14:02;18.10;;;7.77;;
76837;SDS011;65797;47.352;8.164;2023-04-21T02:16:27;19.10;;;6.70;;
76837;SDS011;65797;47.352;8.164;2023-04-21T02:18:54;14.80;;;7.67;;
76837;SDS011;65797;47.352;8.164;2023-04-21T02:21:21;29.97;;;7.40;;
76837;SDS011;65797;47.352;8.164;2023-04-21T02:23:47;24.97;;;7.67;;
76837;SDS011;65797;47.352;8.164;2023-04-21T02:26:13;20.80;;;6.87;;
76837;SDS011;65797;47.352;8.164;2023-04-21T02:28:39;29.30;;;7.47;;
76837;SDS011;65797;47.352;8.164;2023-04-21T02:31:05;31.73;;;7.00;;
76837;SDS011;65797;47.352;8.164;2023-04-21T02:33:31;11.57;;;6.90;;
76837;SDS011;65797;47.352;8.164;2023-04-21T02:35:56;16.23;;;6.97;;
76837;SDS011;65797;47.352;8.164;2023-04-21T02:38:22;26.00;;;7.33;;
76837;SDS011;65797;47.352;8.164;2023-04-21T02:40:48;16.60;;;6.47;;
76837;SDS011;65797;47.352;8.164;2023-04-21T02:43:14;13.90;;;7.40;;
76837;SDS011;65797;47.352;8.164;2023-04-21T02:45:40;24.70;;;8.27;;
76837;SDS011;65797;47.352;8.164;2023-04-21T02:48:06;31.10;;;8.30;;
76837;SDS011;65797;47.352;8.164;2023-04-21T02:50:32;22.03;;;8.80;;
76837;SDS011;65797;47.352;8.164;2023-04-21T02:52:58;31.87;;;8.60;;
76837;SDS011;65797;47.352;8.164;2023-04-21T02:55:23;20.47;;;8.37;;
76837;SDS011;65797;47.352;8.164;2023-04-21T02:57:49;20.30;;;8.73;;
76837;SDS011;65797;47.352;8.164;2023-04-21T03:00:15;24.63;;;8.40;;
76837;SDS011;65797;47.352;8.164;2023-04-21T03:02:41;19.43;;;9.30;;
76837;SDS011;65797;47.352;8.164;2023-04-21T03:05:06;20.27;;;9.97;;
76837;SDS011;65797;47.352;8.164;2023-04-21T03:07:33;22.90;;;9.20;;
76837;SDS011;65797;47.352;8.164;2023-04-21T03:09:58;20.53;;;9.80;;
76837;SDS011;65797;47.352;8.164;2023-04-21T03:12:24;18.73;;;9.40;;
76837;SDS011;65797;47.352;8.164;2023-04-21T03:14:50;20.70;;;10.47;;
76837;SDS011;65797;47.352;8.164;2023-04-21T03:17:16;19.77;;;10.07;;
76837;SDS011;65797;47.352;8.164;2023-04-21T03:19:42;19.43;;;10.20;;
76837;SDS011;65797;47.352;8.164;2023-04-21T03:22:07;21.73;;;9.67;;
76837;SDS011;65797;47.352;8.164;2023-04-21T03:24:33;22.27;;;11.00;;
76837;SDS011;65797;47.352;8.164;2023-04-21T03:26:59;21.03;;;11.07;;
76837;SDS011;65797;47.352;8.164;2023-04-21T03:29:25;26.00;;;10.83;;
76837;SDS011;65797;47.352;8.164;2023-04-21T03:31:51;21.33;;;10.07;;
76837;SDS011;65797;47.352;8.164;2023-04-21T03:34:17;19.07;;;10.40;;
76837;SDS011;65797;47.352;8.164;2023-04-21T03:36:42;24.93;;;11.60;;
76837;SDS011;65797;47.352;8.164;2023-04-21T03:39:08;19.83;;;10.07;;
76837;SDS011;65797;47.352;8.164;2023-04-21T03:41:34;18.23;;;10.07;;
76837;SDS011;65797;47.352;8.164;2023-04-21T03:43:59;18.13;;;9.63;;
76837;SDS011;65797;47.352;8.164;2023-04-21T03:46:25;18.70;;;9.53;;
76837;SDS011;65797;47.352;8.164;2023-04-21T03:48:51;18.77;;;9.77;;
76837;SDS011;65797;47.352;8.164;2023-04-21T03:51:16;17.57;;;9.60;;
76837;SDS011;65797;47.352;8.164;2023-04-21T03:53:42;16.20;;;9.57;;
76837;SDS011;65797;47.352;8.164;2023-04-21T03:56:08;17.70;;;9.47;;
76837;SDS011;65797;47.352;8.164;2023-04-21T03:58:34;17.30;;;8.97;;
76837;SDS011;65797;47.352;8.164;2023-04-21T04:01:00;19.80;;;11.20;;
76837;SDS011;65797;47.352;8.164;2023-04-21T04:03:28;20.43;;;11.30;;
76837;SDS011;65797;47.352;8.164;2023-04-21T04:05:56;21.07;;;10.10;;
76837;SDS011;65797;47.352;8.164;2023-04-21T04:08:22;17.03;;;9.20;;
76837;SDS011;65797;47.352;8.164;2023-04-21T04:10:47;20.10;;;10.83;;
76837;SDS011;65797;47.352;8.164;2023-04-21T04:13:13;20.43;;;11.97;;
76837;SDS011;65797;47.352;8.164;2023-04-21T04:15:39;20.20;;;10.80;;
76837;SDS011;65797;47.352;8.164;2023-04-21T04:18:04;16.53;;;9.20;;
76837;SDS011;65797;47.352;8.164;2023-04-21T04:20:30;14.37;;;9.13;;
76837;SDS011;65797;47.352;8.164;2023-04-21T04:22:56;14.60;;;8.50;;
76837;SDS011;65797;47.352;8.164;2023-04-21T04:25:21;16.20;;;9.60;;
76837;SDS011;65797;47.352;8.164;2023-04-21T04:27:47;16.30;;;9.37;;
76837;SDS011;65797;47.352;8.164;2023-04-21T04:30:14;16.87;;;10.00;;
76837;SDS011;65797;47.352;8.164;2023-04-21T04:32:40;18.80;;;9.60;;
76837;SDS011;65797;47.352;8.164;2023-04-21T04:35:07;15.47;;;9.23;;
76837;SDS011;65797;47.352;8.164;2023-04-21T04:37:36;17.10;;;9.63;;
76837;SDS011;65797;47.352;8.164;2023-04-21T04:40:03;15.27;;;9.07;;
76837;SDS011;65797;47.352;8.164;2023-04-21T04:42:31;18.40;;;10.43;;
76837;SDS011;65797;47.352;8.164;2023-04-21T04:44:57;15.27;;;10.23;;
76837;SDS011;65797;47.352;8.164;2023-04-21T04:47:23;18.43;;;9.93;;
76837;SDS011;65797;47.352;8.164;2023-04-21T04:49:49;16.63;;;9.67;;
76837;SDS011;65797;47.352;8.164;2023-04-21T04:52:15;14.03;;;9.13;;
76837;SDS011;65797;47.352;8.164;2023-04-21T04:54:41;13.93;;;8.77;;
76837;SDS011;65797;47.352;8.164;2023-04-21T04:57:06;13.37;;;8.50;;
76837;SDS011;65797;47.352;8.164;2023-04-21T04:59:32;14.30;;;9.17;;
76837;SDS011;65797;47.352;8.164;2023-04-21T05:01:58;13.97;;;8.03;;
76837;SDS011;65797;47.352;8.164;2023-04-21T05:04:24;11.43;;;7.80;;
76837;SDS011;65797;47.352;8.164;2023-04-21T05:06:49;12.03;;;7.97;;
76837;SDS011;65797;47.352;8.164;2023-04-21T05:09:16;13.67;;;8.57;;
76837;SDS011;65797;47.352;8.164;2023-04-21T05:11:41;12.23;;;7.70;;
76837;SDS011;65797;47.352;8.164;2023-04-21T05:14:07;10.67;;;7.57;;
76837;SDS011;65797;47.352;8.164;2023-04-21T05:16:33;11.47;;;7.40;;
76837;SDS011;65797;47.352;8.164;2023-04-21T05:19:02;13.60;;;8.80;;
76837;SDS011;65797;47.352;8.164;2023-04-21T05:21:28;12.73;;;8.50;;
76837;SDS011;65797;47.352;8.164;2023-04-21T05:23:55;13.90;;;7.73;;
76837;SDS011;65797;47.352;8.164;2023-04-21T05:26:25;13.20;;;8.43;;
76837;SDS011;65797;47.352;8.164;2023-04-21T05:28:52;13.23;;;8.83;;
76837;SDS011;65797;47.352;8.164;2023-04-21T05:31:22;15.10;;;9.47;;
76837;SDS011;65797;47.352;8.164;2023-04-21T05:33:48;17.47;;;9.63;;
76837;SDS011;65797;47.352;8.164;2023-04-21T05:36:14;16.40;;;10.03;;
76837;SDS011;65797;47.352;8.164;2023-04-21T05:38:40;15.20;;;8.97;;
76837;SDS011;65797;47.352;8.164;2023-04-21T05:41:05;19.03;;;9.73;;
76837;SDS011;65797;47.352;8.164;2023-04-21T05:43:32;18.43;;;10.63;;
76837;SDS011;65797;47.352;8.164;2023-04-21T05:45:58;12.63;;;8.60;;
76837;SDS011;65797;47.352;8.164;2023-04-21T05:48:28;16.23;;;9.87;;
76837;SDS011;65797;47.352;8.164;2023-04-21T05:50:56;17.57;;;9.80;;
76837;SDS011;65797;47.352;8.164;2023-04-21T05:53:31;17.50;;;9.80;;
76837;SDS011;65797;47.352;8.164;2023-04-21T05:55:57;18.23;;;9.93;;
76837;SDS011;65797;47.352;8.164;2023-04-21T05:58:22;20.43;;;10.10;;
76837;SDS011;65797;47.352;8.164;2023-04-21T06:00:48;17.43;;;10.83;;
76837;SDS011;65797;47.352;8.164;2023-04-21T06:03:15;17.90;;;10.30;;
76837;SDS011;65797;47.352;8.164;2023-04-21T06:05:40;19.00;;;10.80;;
76837;SDS011;65797;47.352;8.164;2023-04-21T06:08:06;20.10;;;9.13;;
76837;SDS011;65797;47.352;8.164;2023-04-21T06:10:32;14.83;;;8.87;;
76837;SDS011;65797;47.352;8.164;2023-04-21T06:12:58;14.87;;;8.57;;
76837;SDS011;65797;47.352;8.164;2023-04-21T06:15:23;13.83;;;8.97;;
76837;SDS011;65797;47.352;8.164;2023-04-21T06:17:52;19.17;;;9.67;;
76837;SDS011;65797;47.352;8.164;2023-04-21T06:20:20;17.03;;;9.03;;
76837;SDS011;65797;47.352;8.164;2023-04-21T06:22:46;20.43;;;9.10;;
76837;SDS011;65797;47.352;8.164;2023-04-21T06:25:12;15.93;;;8.57;;
76837;SDS011;65797;47.352;8.164;2023-04-21T06:27:38;14.33;;;8.20;;
76837;SDS011;65797;47.352;8.164;2023-04-21T06:30:03;16.27;;;9.17;;
76837;SDS011;65797;47.352;8.164;2023-04-21T06:32:30;14.30;;;7.93;;
76837;SDS011;65797;47.352;8.164;2023-04-21T06:34:55;16.30;;;9.10;;
76837;SDS011;65797;47.352;8.164;2023-04-21T06:37:21;17.07;;;9.40;;
76837;SDS011;65797;47.352;8.164;2023-04-21T06:39:47;14.80;;;8.10;;
76837;SDS011;65797;47.352;8.164;2023-04-21T06:42:12;15.60;;;8.63;;
76837;SDS011;65797;47.352;8.164;2023-04-21T06:44:38;16.57;;;8.30;;
76837;SDS011;65797;47.352;8.164;2023-04-21T06:47:04;16.67;;;9.50;;
76837;SDS011;65797;47.352;8.164;2023-04-21T06:49:29;20.13;;;9.23;;
76837;SDS011;65797;47.352;8.164;2023-04-21T06:51:55;12.37;;;7.17;;
76837;SDS011;65797;47.352;8.164;2023-04-21T06:54:21;13.67;;;8.50;;
76837;SDS011;65797;47.352;8.164;2023-04-21T06:56:46;12.20;;;7.70;;
76837;SDS011;65797;47.352;8.164;2023-04-21T06:59:15;15.90;;;9.07;;
76837;SDS011;65797;47.352;8.164;2023-04-21T07:01:40;15.67;;;9.60;;
76837;SDS011;65797;47.352;8.164;2023-04-21T07:04:06;17.30;;;8.87;;
76837;SDS011;65797;47.352;8.164;2023-04-21T07:06:32;16.90;;;9.30;;
76837;SDS011;65797;47.352;8.164;2023-04-21T07:08:57;16.70;;;9.70;;
76837;SDS011;65797;47.352;8.164;2023-04-21T07:11:24;17.37;;;8.80;;
76837;SDS011;65797;47.352;8.164;2023-04-21T07:13:50;19.83;;;10.10;;
76837;SDS011;65797;47.352;8.164;2023-04-21T07:16:15;15.80;;;8.83;;
76837;SDS011;65797;47.352;8.164;2023-04-21T07:18:41;16.30;;;8.87;;
76837;SDS011;65797;47.352;8.164;2023-04-21T07:21:07;17.97;;;8.67;;
76837;SDS011;65797;47.352;8.164;2023-04-21T07:23:48;14.43;;;8.47;;
76837;SDS011;65797;47.352;8.164;2023-04-21T11:55:46;8.90;;;6.10;;
76837;SDS011;65797;47.352;8.164;2023-04-21T12:06:28;10.17;;;6.10;;
76837;SDS011;65797;47.352;8.164;2023-04-21T12:09:00;7.20;;;5.30;;
76837;SDS011;65797;47.352;8.164;2023-04-21T12:11:27;11.87;;;6.03;;
76837;SDS011;65797;47.352;8.164;2023-04-21T12:13:57;12.90;;;8.30;;
76837;SDS011;65797;47.352;8.164;2023-04-21T12:16:24;8.43;;;6.17;;
76837;SDS011;65797;47.352;8.164;2023-04-21T12:18:51;9.03;;;6.40;;
76837;SDS011;65797;47.352;8.164;2023-04-21T12:21:17;10.77;;;7.00;;
76837;SDS011;65797;47.352;8.164;2023-04-21T12:23:43;11.70;;;7.17;;
76837;SDS011;65797;47.352;8.164;2023-04-21T12:26:09;13.60;;;8.80;;
76837;SDS011;65797;47.352;8.164;2023-04-21T12:28:36;11.07;;;7.43;;
76837;SDS011;65797;47.352;8.164;2023-04-21T12:31:02;9.60;;;7.07;;
76837;SDS011;65797;47.352;8.164;2023-04-21T12:33:28;12.63;;;8.37;;
76837;SDS011;65797;47.352;8.164;2023-04-21T12:35:55;93.03;;;15.10;;
76837;SDS011;65797;47.352;8.164;2023-04-21T12:38:20;12.00;;;7.67;;
76837;SDS011;65797;47.352;8.164;2023-04-21T12:40:46;11.27;;;6.73;;
76837;SDS011;65797;47.352;8.164;2023-04-21T12:43:12;8.87;;;6.30;;
76837;SDS011;65797;47.352;8.164;2023-04-21T12:45:38;15.83;;;7.43;;
76837;SDS011;65797;47.352;8.164;2023-04-21T12:48:04;9.07;;;6.60;;
76837;SDS011;65797;47.352;8.164;2023-04-21T12:50:30;12.77;;;8.47;;
76837;SDS011;65797;47.352;8.164;2023-04-21T12:52:56;8.47;;;6.77;;
76837;SDS011;65797;47.352;8.164;2023-04-21T12:55:22;9.60;;;8.07;;
76837;SDS011;65797;47.352;8.164;2023-04-21T12:57:48;11.70;;;7.70;;
76837;SDS011;65797;47.352;8.164;2023-04-21T13:00:15;13.43;;;7.57;;
76837;SDS011;65797;47.352;8.164;2023-04-21T13:02:41;16.47;;;7.67;;
76837;SDS011;65797;47.352;8.164;2023-04-21T13:05:07;10.20;;;7.17;;
76837;SDS011;65797;47.352;8.164;2023-04-21T13:07:34;9.77;;;6.93;;
76837;SDS011;65797;47.352;8.164;2023-04-21T13:10:01;9.73;;;7.53;;
76837;SDS011;65797;47.352;8.164;2023-04-21T13:12:30;9.27;;;7.00;;
76837;SDS011;65797;47.352;8.164;2023-04-21T13:14:57;10.50;;;7.60;;
76837;SDS011;65797;47.352;8.164;2023-04-21T13:17:22;8.67;;;6.70;;
76837;SDS011;65797;47.352;8.164;2023-04-21T13:19:48;12.70;;;8.40;;
76837;SDS011;65797;47.352;8.164;2023-04-21T13:22:14;11.37;;;7.70;;
76837;SDS011;65797;47.352;8.164;2023-04-21T13:24:40;10.60;;;6.17;;
76837;SDS011;65797;47.352;8.164;2023-04-21T13:27:06;10.30;;;7.20;;
76837;SDS011;65797;47.352;8.164;2023-04-21T13:29:32;9.47;;;7.50;;
76837;SDS011;65797;47.352;8.164;2023-04-21T13:32:07;12.53;;;7.40;;
76837;SDS011;65797;47.352;8.164;2023-04-21T13:34:34;9.80;;;6.83;;
76837;SDS011;65797;47.352;8.164;2023-04-21T13:37:00;9.23;;;7.10;;
76837;SDS011;65797;47.352;8.164;2023-04-21T13:39:26;7.93;;;6.57;;
76837;SDS011;65797;47.352;8.164;2023-04-21T13:41:52;8.80;;;6.87;;
76837;SDS011;65797;47.352;8.164;2023-04-21T13:44:18;11.70;;;7.07;;
76837;SDS011;65797;47.352;8.164;2023-04-21T13:46:45;8.57;;;6.73;;
76837;SDS011;65797;47.352;8.164;2023-04-21T13:49:11;7.20;;;5.90;;
76837;SDS011;65797;47.352;8.164;2023-04-21T13:51:37;6.77;;;5.37;;
76837;SDS011;65797;47.352;8.164;2023-04-21T13:54:03;8.93;;;6.57;;
76837;SDS011;65797;47.352;8.164;2023-04-21T13:56:29;7.73;;;6.20;;
76837;SDS011;65797;47.352;8.164;2023-04-21T13:58:55;11.57;;;5.43;;
76837;SDS011;65797;47.352;8.164;2023-04-21T14:01:21;6.97;;;5.23;;
76837;SDS011;65797;47.352;8.164;2023-04-21T14:03:47;8.47;;;5.50;;
76837;SDS011;65797;47.352;8.164;2023-04-21T14:06:13;10.10;;;6.33;;
76837;SDS011;65797;47.352;8.164;2023-04-21T14:08:39;8.87;;;6.70;;
76837;SDS011;65797;47.352;8.164;2023-04-21T14:11:04;7.57;;;6.10;;
76837;SDS011;65797;47.352;8.164;2023-04-21T14:13:30;9.83;;;6.90;;
76837;SDS011;65797;47.352;8.164;2023-04-21T14:15:56;8.10;;;6.10;;
76837;SDS011;65797;47.352;8.164;2023-04-21T14:18:22;7.10;;;5.87;;
76837;SDS011;65797;47.352;8.164;2023-04-21T14:20:48;8.67;;;6.70;;
76837;SDS011;65797;47.352;8.164;2023-04-21T14:23:14;8.50;;;6.27;;
76837;SDS011;65797;47.352;8.164;2023-04-21T14:25:40;11.57;;;6.87;;
76837;SDS011;65797;47.352;8.164;2023-04-21T14:28:06;9.60;;;6.53;;
76837;SDS011;65797;47.352;8.164;2023-04-21T14:30:36;8.07;;;5.30;;
76837;SDS011;65797;47.352;8.164;2023-04-21T14:33:05;7.83;;;5.97;;
76837;SDS011;65797;47.352;8.164;2023-04-21T14:35:30;7.17;;;5.33;;
76837;SDS011;65797;47.352;8.164;2023-04-21T14:37:56;8.57;;;6.20;;
76837;SDS011;65797;47.352;8.164;2023-04-21T14:40:22;7.63;;;6.00;;
76837;SDS011;65797;47.352;8.164;2023-04-21T14:42:48;5.63;;;4.60;;
76837;SDS011;65797;47.352;8.164;2023-04-21T14:45:14;8.23;;;5.23;;
76837;SDS011;65797;47.352;8.164;2023-04-21T14:47:40;5.93;;;5.17;;
76837;SDS011;65797;47.352;8.164;2023-04-21T14:50:07;7.03;;;5.40;;
76837;SDS011;65797;47.352;8.164;2023-04-21T14:52:33;6.73;;;5.33;;
76837;SDS011;65797;47.352;8.164;2023-04-21T14:54:58;8.87;;;6.07;;
76837;SDS011;65797;47.352;8.164;2023-04-21T14:57:25;9.03;;;6.37;;
76837;SDS011;65797;47.352;8.164;2023-04-21T14:59:51;8.37;;;5.83;;
76837;SDS011;65797;47.352;8.164;2023-04-21T15:02:18;8.20;;;5.33;;
76837;SDS011;65797;47.352;8.164;2023-04-21T15:04:44;7.07;;;5.60;;
76837;SDS011;65797;47.352;8.164;2023-04-21T15:07:11;8.00;;;5.90;;
76837;SDS011;65797;47.352;8.164;2023-04-21T15:09:37;6.60;;;5.63;;
76837;SDS011;65797;47.352;8.164;2023-04-21T15:12:03;8.77;;;5.67;;
76837;SDS011;65797;47.352;8.164;2023-04-21T15:14:29;7.00;;;5.67;;
76837;SDS011;65797;47.352;8.164;2023-04-21T15:16:55;8.67;;;6.20;;
76837;SDS011;65797;47.352;8.164;2023-04-21T15:19:21;6.70;;;5.20;;
76837;SDS011;65797;47.352;8.164;2023-04-21T15:21:46;9.10;;;6.57;;
76837;SDS011;65797;47.352;8.164;2023-04-21T15:24:12;8.23;;;4.93;;
76837;SDS011;65797;47.352;8.164;2023-04-21T15:26:38;8.43;;;5.97;;
76837;SDS011;65797;47.352;8.164;2023-04-21T15:29:04;6.57;;;5.20;;
76837;SDS011;65797;47.352;8.164;2023-04-21T15:31:29;8.23;;;5.73;;
76837;SDS011;65797;47.352;8.164;2023-04-21T15:33:56;6.03;;;4.77;;
76837;SDS011;65797;47.352;8.164;2023-04-21T15:36:21;7.80;;;5.40;;
76837;SDS011;65797;47.352;8.164;2023-04-21T15:38:47;7.00;;;5.00;;
76837;SDS011;65797;47.352;8.164;2023-04-21T15:41:13;6.10;;;5.00;;
76837;SDS011;65797;47.352;8.164;2023-04-21T15:43:40;8.10;;;6.20;;
76837;SDS011;65797;47.352;8.164;2023-04-21T15:46:06;5.53;;;4.87;;
76837;SDS011;65797;47.352;8.164;2023-04-21T15:48:37;9.50;;;6.30;;
76837;SDS011;65797;47.352;8.164;2023-04-21T15:51:04;9.53;;;6.23;;
76837;SDS011;65797;47.352;8.164;2023-04-21T15:53:31;6.50;;;5.47;;
76837;SDS011;65797;47.352;8.164;2023-04-21T15:56:01;7.40;;;5.30;;
76837;SDS011;65797;47.352;8.164;2023-04-21T15:58:28;8.73;;;6.00;;
76837;SDS011;65797;47.352;8.164;2023-04-21T16:00:54;7.27;;;5.00;;
76837;SDS011;65797;47.352;8.164;2023-04-21T16:03:20;5.80;;;5.20;;
76837;SDS011;65797;47.352;8.164;2023-04-21T16:05:46;8.03;;;4.83;;
76837;SDS011;65797;47.352;8.164;2023-04-21T16:08:12;7.73;;;4.90;;
76837;SDS011;65797;47.352;8.164;2023-04-21T16:10:38;6.87;;;5.50;;
76837;SDS011;65797;47.352;8.164;2023-04-21T16:13:04;5.87;;;4.97;;
76837;SDS011;65797;47.352;8.164;2023-04-21T16:18:05;6.40;;;5.13;;
76837;SDS011;65797;47.352;8.164;2023-04-21T16:20:31;10.80;;;6.63;;
76837;SDS011;65797;47.352;8.164;2023-04-21T16:22:57;15.40;;;7.13;;
76837;SDS011;65797;47.352;8.164;2023-04-21T16:25:23;15.13;;;6.57;;
76837;SDS011;65797;47.352;8.164;2023-04-21T16:27:51;7.70;;;6.47;;
76837;SDS011;65797;47.352;8.164;2023-04-21T16:30:17;13.60;;;6.37;;
76837;SDS011;65797;47.352;8.164;2023-04-21T16:32:43;6.50;;;5.00;;
76837;SDS011;65797;47.352;8.164;2023-04-21T16:35:08;5.17;;;4.20;;
76837;SDS011;65797;47.352;8.164;2023-04-21T16:37:35;5.70;;;4.80;;
76837;SDS011;65797;47.352;8.164;2023-04-21T16:42:39;6.23;;;5.10;;
76837;SDS011;65797;47.352;8.164;2023-04-21T16:45:05;8.40;;;5.10;;
76837;SDS011;65797;47.352;8.164;2023-04-21T16:47:32;6.47;;;5.27;;
76837;SDS011;65797;47.352;8.164;2023-04-21T16:50:03;5.60;;;4.93;;
76837;SDS011;65797;47.352;8.164;2023-04-21T16:52:29;6.30;;;5.10;;
76837;SDS011;65797;47.352;8.164;2023-04-21T16:54:55;6.53;;;5.53;;
76837;SDS011;65797;47.352;8.164;2023-04-21T16:57:21;5.33;;;4.50;;
76837;SDS011;65797;47.352;8.164;2023-04-21T16:59:50;5.23;;;4.73;;
76837;SDS011;65797;47.352;8.164;2023-04-21T17:02:17;6.60;;;5.10;;
76837;SDS011;65797;47.352;8.164;2023-04-21T17:04:43;5.57;;;5.07;;
76837;SDS011;65797;47.352;8.164;2023-04-21T17:07:09;5.40;;;4.80;;
76837;SDS011;65797;47.352;8.164;2023-04-21T17:09:35;10.60;;;6.00;;
76837;SDS011;65797;47.352;8.164;2023-04-21T17:12:01;7.23;;;5.43;;
76837;SDS011;65797;47.352;8.164;2023-04-21T17:14:27;5.57;;;4.63;;
76837;SDS011;65797;47.352;8.164;2023-04-21T17:16:54;6.60;;;5.40;;
76837;SDS011;65797;47.352;8.164;2023-04-21T17:19:20;6.73;;;5.80;;
76837;SDS011;65797;47.352;8.164;2023-04-21T17:21:45;9.07;;;6.07;;
76837;SDS011;65797;47.352;8.164;2023-04-21T17:24:11;7.57;;;6.10;;
76837;SDS011;65797;47.352;8.164;2023-04-21T17:26:37;6.20;;;5.57;;
76837;SDS011;65797;47.352;8.164;2023-04-21T17:29:03;5.90;;;4.77;;
76837;SDS011;65797;47.352;8.164;2023-04-21T17:31:30;5.37;;;4.60;;
76837;SDS011;65797;47.352;8.164;2023-04-21T17:33:57;7.50;;;5.60;;
76837;SDS011;65797;47.352;8.164;2023-04-21T17:36:23;8.00;;;6.00;;
76837;SDS011;65797;47.352;8.164;2023-04-21T17:38:51;6.90;;;5.63;;
76837;SDS011;65797;47.352;8.164;2023-04-21T17:41:18;7.47;;;5.40;;
76837;SDS011;65797;47.352;8.164;2023-04-21T17:43:45;7.23;;;5.10;;
76837;SDS011;65797;47.352;8.164;2023-04-21T17:46:11;9.30;;;6.27;;
76837;SDS011;65797;47.352;8.164;2023-04-21T17:48:36;7.27;;;5.37;;
76837;SDS011;65797;47.352;8.164;2023-04-21T17:51:02;11.50;;;6.30;;
76837;SDS011;65797;47.352;8.164;2023-04-21T17:53:28;8.93;;;6.57;;
76837;SDS011;65797;47.352;8.164;2023-04-21T17:55:55;5.17;;;4.50;;
76837;SDS011;65797;47.352;8.164;2023-04-21T17:58:21;16.03;;;5.40;;
76837;SDS011;65797;47.352;8.164;2023-04-21T18:00:47;7.40;;;4.93;;
76837;SDS011;65797;47.352;8.164;2023-04-21T18:03:13;6.73;;;5.20;;
76837;SDS011;65797;47.352;8.164;2023-04-21T18:05:38;6.80;;;4.77;;
76837;SDS011;65797;47.352;8.164;2023-04-21T18:08:04;6.77;;;5.30;;
76837;SDS011;65797;47.352;8.164;2023-04-21T18:10:30;6.77;;;5.23;;
76837;SDS011;65797;47.352;8.164;2023-04-21T18:12:56;5.30;;;4.67;;
76837;SDS011;65797;47.352;8.164;2023-04-21T18:15:22;6.37;;;5.03;;
76837;SDS011;65797;47.352;8.164;2023-04-21T18:17:48;10.50;;;4.70;;
76837;SDS011;65797;47.352;8.164;2023-04-21T18:20:13;5.93;;;4.13;;
76837;SDS011;65797;47.352;8.164;2023-04-21T18:22:42;5.67;;;4.73;;
76837;SDS011;65797;47.352;8.164;2023-04-21T18:25:12;6.73;;;5.10;;
76837;SDS011;65797;47.352;8.164;2023-04-21T18:27:38;7.53;;;4.30;;
76837;SDS011;65797;47.352;8.164;2023-04-21T18:30:05;5.00;;;4.50;;
76837;SDS011;65797;47.352;8.164;2023-04-21T18:32:33;4.87;;;3.90;;
76837;SDS011;65797;47.352;8.164;2023-04-21T18:34:59;6.73;;;4.93;;
76837;SDS011;65797;47.352;8.164;2023-04-21T18:37:26;5.13;;;4.17;;
76837;SDS011;65797;47.352;8.164;2023-04-21T18:39:51;6.13;;;4.40;;
76837;SDS011;65797;47.352;8.164;2023-04-21T18:42:17;7.20;;;4.60;;
76837;SDS011;65797;47.352;8.164;2023-04-21T18:44:43;4.73;;;3.90;;
76837;SDS011;65797;47.352;8.164;2023-04-21T18:47:08;5.80;;;4.20;;
76837;SDS011;65797;47.352;8.164;2023-04-21T18:49:35;6.30;;;4.17;;
76837;SDS011;65797;47.352;8.164;2023-04-21T18:52:03;4.10;;;3.60;;
76837;SDS011;65797;47.352;8.164;2023-04-21T18:54:28;5.63;;;4.03;;
76837;SDS011;65797;47.352;8.164;2023-04-21T18:56:54;7.93;;;4.10;;
76837;SDS011;65797;47.352;8.164;2023-04-21T18:59:21;7.90;;;3.87;;
76837;SDS011;65797;47.352;8.164;2023-04-21T19:01:47;5.17;;;3.77;;
76837;SDS011;65797;47.352;8.164;2023-04-21T19:04:13;3.97;;;3.30;;
76837;SDS011;65797;47.352;8.164;2023-04-21T19:06:39;6.40;;;3.97;;
76837;SDS011;65797;47.352;8.164;2023-04-21T19:09:05;3.83;;;3.53;;
76837;SDS011;65797;47.352;8.164;2023-04-21T19:11:31;3.60;;;3.23;;
76837;SDS011;65797;47.352;8.164;2023-04-21T19:13:57;3.50;;;3.20;;
76837;SDS011;65797;47.352;8.164;2023-04-21T19:16:23;5.13;;;3.00;;